Eastern Galaxy — DUCH — position and weather

sailwx.info

Track history (hours):
 
Tides and Currents Weather Stations Pressure Air Temp Water Temp Dewpoint Dewpoint Depression Visibility Wind Speed Wind Dir Waves Ship Positions

Eastern Galaxy

Last reported at 2017-Mar-25 13:15 UTC. Time now 2017-Mar-26 07:27 UTC.
Position N 33°57' E 134°57'.

Length 100 m; draft 7.1 m.

Type: Cargo ship. MMSI: 548829000.

Date/timePositionNaut miles runAvg speedWind from/ knotsBaromVisibWave heightAir tempDewpointWater temp
2017-Mar-25 13:15N 33°57' E 134°57'811.1
2017-Mar-25 12:33N 34°05' E 134°57'1111.1
2017-Mar-25 11:33N 34°16' E 134°58'1010.1
2017-Mar-25 10:33N 34°25' E 135°04'1111.2
2017-Mar-25 09:33N 34°32' E 135°14'1010.3
2017-Mar-25 08:33N 34°39' E 135°24'2 1.4
2017-Mar-25 07:28N 34°39' E 135°26'0 0.0
2017-Mar-25 06:28N 34°39' E 135°26'0 0.0
2017-Mar-25 05:28N 34°39' E 135°26'0 0.0
2017-Mar-25 04:22N 34°39' E 135°26'0 0.1
2017-Mar-25 03:28N 34°39' E 135°26'0 0.0
2017-Mar-25 02:22N 34°39' E 135°26'0 0.1
2017-Mar-25 01:28N 34°39' E 135°26'0 0.0
2017-Mar-25 00:28N 34°39' E 135°26'0 0.0
2017-Mar-24 23:28N 34°39' E 135°26'0 0.0
2017-Mar-24 22:22N 34°39' E 135°26'0 0.0
2017-Mar-24 21:28N 34°39' E 135°26'0 0.0
2017-Mar-24 20:22N 34°39' E 135°26'0 0.1
2017-Mar-24 19:28N 34°39' E 135°26'0 0.0
2017-Mar-24 18:28N 34°39' E 135°26'0 0.0
2017-Mar-24 17:10N 34°39' E 135°26'0 0.1
2017-Mar-24 16:28N 34°39' E 135°26'0 0.0
2017-Mar-24 15:22N 34°39' E 135°26'0 0.1
2017-Mar-24 14:28N 34°39' E 135°26'0 0.0
2017-Mar-24 13:28N 34°39' E 135°26'0 0.0
2017-Mar-24 12:28N 34°39' E 135°26'0 0.0
2017-Mar-24 11:28N 34°39' E 135°26'0 0.0
2017-Mar-24 10:28N 34°39' E 135°26'0 0.0
2017-Mar-24 09:28N 34°39' E 135°26'0 0.0
2017-Mar-24 08:28N 34°39' E 135°26'0 0.0
2017-Mar-24 07:04N 34°39' E 135°26'0 0.0
2017-Mar-24 06:28N 34°39' E 135°26'0 0.0
2017-Mar-24 05:28N 34°39' E 135°26'0 0.0
2017-Mar-24 04:28N 34°39' E 135°26'0 0.0
2017-Mar-24 03:28N 34°39' E 135°26'0 0.0
2017-Mar-24 02:22N 34°39' E 135°26'0 0.3
2017-Mar-24 01:33N 34°39' E 135°25'5 4.4
2017-Mar-24 00:30N 34°36' E 135°21'0 0.1
2017-Mar-23 23:24N 34°36' E 135°21'0 0.0
2017-Mar-23 22:24N 34°36' E 135°21'0 0.0
2017-Mar-23 21:18N 34°36' E 135°21'0 0.1
2017-Mar-23 20:30N 34°36' E 135°21'0 0.1
2017-Mar-23 19:30N 34°36' E 135°21'0 0.0
2017-Mar-23 18:30N 34°36' E 135°21'0 0.0
2017-Mar-23 17:24N 34°36' E 135°21'0 0.0
2017-Mar-23 16:31N 34°36' E 135°21'2 2.4
2017-Mar-23 15:33N 34°36' E 135°19'1111.4
2017-Mar-23 14:33N 34°35' E 135°05'1211.8
2017-Mar-23 13:33N 34°34' E 134°51'  
2017-Mar-19 11:22N 33°59' E 132°44'8 9.8
2017-Mar-19 10:32N 33°53' E 132°37'1010.4
2017-Mar-19 09:34N 33°47' E 132°28'1010.4
2017-Mar-19 08:34N 33°40' E 132°19'17 8.5
2017-Mar-19 06:33N 33°33' E 132°00'  
Track history (hours):
 
Tides and Currents Weather Stations Pressure Air Temp Water Temp Dewpoint Dewpoint Depression Visibility Wind Speed Wind Dir Waves Ship Positions

Eastern Galaxy

Last reported at 2017-Mar-25 13:15 UTC. Time now 2017-Mar-26 07:27 UTC.
Position N 33°57' E 134°57'.

Length 100 m; draft 7.1 m.

Type: Cargo ship. MMSI: 548829000.

Date/timePositionNaut miles runAvg speedWind from/ knotsBaromVisibWave heightAir tempDewpointWater temp
2017-Mar-25 13:15N 33°57' E 134°57'811.1
2017-Mar-25 12:33N 34°05' E 134°57'1111.1
2017-Mar-25 11:33N 34°16' E 134°58'1010.1
2017-Mar-25 10:33N 34°25' E 135°04'1111.2
2017-Mar-25 09:33N 34°32' E 135°14'1010.3
2017-Mar-25 08:33N 34°39' E 135°24'2 1.4
2017-Mar-25 07:28N 34°39' E 135°26'0 0.0
2017-Mar-25 06:28N 34°39' E 135°26'0 0.0
2017-Mar-25 05:28N 34°39' E 135°26'0 0.0
2017-Mar-25 04:22N 34°39' E 135°26'0 0.1
2017-Mar-25 03:28N 34°39' E 135°26'0 0.0
2017-Mar-25 02:22N 34°39' E 135°26'0 0.1
2017-Mar-25 01:28N 34°39' E 135°26'0 0.0
2017-Mar-25 00:28N 34°39' E 135°26'0 0.0
2017-Mar-24 23:28N 34°39' E 135°26'0 0.0
2017-Mar-24 22:22N 34°39' E 135°26'0 0.0
2017-Mar-24 21:28N 34°39' E 135°26'0 0.0
2017-Mar-24 20:22N 34°39' E 135°26'0 0.1
2017-Mar-24 19:28N 34°39' E 135°26'0 0.0
2017-Mar-24 18:28N 34°39' E 135°26'0 0.0
2017-Mar-24 17:10N 34°39' E 135°26'0 0.1
2017-Mar-24 16:28N 34°39' E 135°26'0 0.0
2017-Mar-24 15:22N 34°39' E 135°26'0 0.1
2017-Mar-24 14:28N 34°39' E 135°26'0 0.0
2017-Mar-24 13:28N 34°39' E 135°26'0 0.0
2017-Mar-24 12:28N 34°39' E 135°26'0 0.0
2017-Mar-24 11:28N 34°39' E 135°26'0 0.0
2017-Mar-24 10:28N 34°39' E 135°26'0 0.0
2017-Mar-24 09:28N 34°39' E 135°26'0 0.0
2017-Mar-24 08:28N 34°39' E 135°26'0 0.0
2017-Mar-24 07:04N 34°39' E 135°26'0 0.0
2017-Mar-24 06:28N 34°39' E 135°26'0 0.0
2017-Mar-24 05:28N 34°39' E 135°26'0 0.0
2017-Mar-24 04:28N 34°39' E 135°26'0 0.0
2017-Mar-24 03:28N 34°39' E 135°26'0 0.0
2017-Mar-24 02:22N 34°39' E 135°26'0 0.3
2017-Mar-24 01:33N 34°39' E 135°25'5 4.4
2017-Mar-24 00:30N 34°36' E 135°21'0 0.1
2017-Mar-23 23:24N 34°36' E 135°21'0 0.0
2017-Mar-23 22:24N 34°36' E 135°21'0 0.0
2017-Mar-23 21:18N 34°36' E 135°21'0 0.1
2017-Mar-23 20:30N 34°36' E 135°21'0 0.1
2017-Mar-23 19:30N 34°36' E 135°21'0 0.0
2017-Mar-23 18:30N 34°36' E 135°21'0 0.0
2017-Mar-23 17:24N 34°36' E 135°21'0 0.0
2017-Mar-23 16:31N 34°36' E 135°21'2 2.4
2017-Mar-23 15:33N 34°36' E 135°19'1111.4
2017-Mar-23 14:33N 34°35' E 135°05'1211.8
2017-Mar-23 13:33N 34°34' E 134°51'  
2017-Mar-19 11:22N 33°59' E 132°44'8 9.8
2017-Mar-19 10:32N 33°53' E 132°37'1010.4
2017-Mar-19 09:34N 33°47' E 132°28'1010.4
2017-Mar-19 08:34N 33°40' E 132°19'17 8.5
2017-Mar-19 06:33N 33°33' E 132°00'  

Dump ship's entire track history